Time;durP1;ratioP1;P1;durP2;ratioP2;P2;SDS_P1;SDS_P2;PMS_P1;PMS_P2;Temp;Humidity;BMP_temperature;BMP_pressure;BME280_temperature;BME280_humidity;BME280_pressure;Samples;Min_cycle;Max_cycle;Signal;HPM_P1;HPM_P2
2023/09/11 00:00:46;;;;;;;10.32;3.80;;;;;;;21.24;60.30;100265.78;10302746;28;20042;-62
2023/09/11 00:05:48;;;;;;;9.30;3.80;;;;;;;21.20;60.76;100258.06;10298693;28;20081;-61
2023/09/11 00:11:05;;;;;;;11.05;4.30;;;;;;;21.17;60.57;100244.91;10300832;28;20074;-61
2023/09/11 00:16:06;;;;;;;10.07;3.63;;;;;;;21.14;61.02;100250.03;10287053;28;20047;-61
2023/09/11 00:21:08;;;;;;;8.00;4.13;;;;;;;21.05;60.69;100246.03;10306604;28;20051;-61
2023/09/11 00:26:09;;;;;;;10.05;3.70;;;;;;;20.90;61.36;100243.91;10301134;28;20050;-62
2023/09/11 00:31:11;;;;;;;14.23;4.93;;;;;;;20.77;61.41;100247.75;10301598;28;20055;-61
2023/09/11 00:36:12;;;;;;;11.23;3.92;;;;;;;20.62;62.05;100250.19;10300418;28;20050;-61
2023/09/11 00:41:13;;;;;;;9.57;4.10;;;;;;;20.59;62.22;100246.06;10290947;28;20054;-61
2023/09/11 00:46:15;;;;;;;13.73;5.10;;;;;;;20.50;62.16;100229.22;10302125;28;20638;-62
2023/09/11 00:51:16;;;;;;;8.38;3.97;;;;;;;20.48;62.35;100230.53;10284183;28;20094;-61
2023/09/11 00:56:18;;;;;;;13.45;4.32;;;;;;;20.43;62.08;100233.19;10304862;28;20039;-62
2023/09/11 01:01:22;;;;;;;13.00;5.32;;;;;;;20.42;62.64;100229.63;10304719;28;20053;-59
2023/09/11 01:06:24;;;;;;;12.70;4.13;;;;;;;20.36;62.59;100225.97;10301923;28;20050;-59
2023/09/11 01:11:25;;;;;;;10.32;4.15;;;;;;;20.30;62.72;100217.91;10303856;28;20054;-59
2023/09/11 01:16:35;;;;;;;11.68;4.28;;;;;;;20.31;62.84;100219.56;10303238;28;20051;-59
2023/09/11 01:22:09;;;;;;;13.18;4.50;;;;;;;20.31;62.96;100214.13;10302131;28;20546;-59
2023/09/11 01:27:39;;;;;;;7.88;4.13;;;;;;;20.30;62.95;100215.19;10304557;28;20050;-59
2023/09/11 01:32:41;;;;;;;15.05;4.28;;;;;;;20.25;63.01;100215.91;10304644;28;20077;-59
2023/09/11 01:37:43;;;;;;;9.55;3.83;;;;;;;20.24;62.68;100222.47;10299614;28;20039;-59
2023/09/11 01:42:49;;;;;;;11.57;4.18;;;;;;;20.23;62.97;100214.50;10301157;28;20623;-59
2023/09/11 01:47:52;;;;;;;10.32;3.75;;;;;;;20.20;62.59;100210.34;10295420;28;20515;-59
2023/09/11 01:52:55;;;;;;;18.30;3.83;;;;;;;20.18;62.75;100216.06;10303891;28;20046;-59
2023/09/11 01:57:56;;;;;;;12.95;3.95;;;;;;;20.14;62.63;100214.03;10303799;28;20042;-59
2023/09/11 02:02:58;;;;;;;13.07;3.67;;;;;;;20.08;62.93;100218.56;10303423;28;20061;-59
2023/09/11 02:07:59;;;;;;;11.38;5.07;;;;;;;19.99;63.35;100218.13;10307198;28;20058;-59
2023/09/11 02:13:01;;;;;;;11.30;4.10;;;;;;;19.97;63.31;100219.47;10308851;28;20507;-58
2023/09/11 02:18:02;;;;;;;8.85;4.20;;;;;;;19.93;63.30;100218.28;10308878;28;20051;-61
2023/09/11 02:23:04;;;;;;;15.35;5.00;;;;;;;19.92;63.46;100217.44;10301103;28;20764;-62
2023/09/11 02:28:05;;;;;;;12.55;4.60;;;;;;;19.88;63.34;100213.53;10305179;28;20066;-61
2023/09/11 02:33:07;;;;;;;9.60;5.07;;;;;;;19.79;63.67;100215.81;10290409;28;20049;-61
2023/09/11 02:38:08;;;;;;;9.40;4.57;;;;;;;19.75;63.88;100216.53;10297555;28;20050;-61
2023/09/11 02:43:10;;;;;;;12.07;4.75;;;;;;;19.69;64.10;100212.00;10306226;28;20523;-61
2023/09/11 02:48:11;;;;;;;12.20;4.47;;;;;;;19.61;63.98;100213.22;10302972;28;20047;-62
2023/09/11 02:53:16;;;;;;;12.82;3.97;;;;;;;19.58;64.37;100214.50;10306233;28;20097;-61
2023/09/11 02:58:19;;;;;;;9.98;5.28;;;;;;;19.52;64.18;100210.00;10302058;28;20057;-61
2023/09/11 03:03:21;;;;;;;10.40;4.95;;;;;;;19.41;64.36;100205.38;10306754;28;20042;-62
2023/09/11 03:08:23;;;;;;;8.23;4.45;;;;;;;19.36;64.61;100192.47;10312318;28;20053;-62
2023/09/11 03:13:24;;;;;;;11.27;4.53;;;;;;;19.33;64.70;100200.28;10302609;28;20057;-61
2023/09/11 03:18:26;;;;;;;12.68;5.32;;;;;;;19.29;64.84;100193.66;10264764;28;20050;-62
2023/09/11 03:23:27;;;;;;;10.75;4.57;;;;;;;19.24;64.97;100193.56;10265186;28;20331;-59
2023/09/11 03:28:30;;;;;;;14.88;5.50;;;;;;;19.16;64.96;100194.75;10263189;28;20117;-61
2023/09/11 03:33:32;;;;;;;12.68;4.95;;;;;;;19.16;64.97;100190.13;10262916;28;20101;-60
2023/09/11 03:38:33;;;;;;;10.80;4.97;;;;;;;19.14;65.06;100183.25;10262116;28;20047;-61
2023/09/11 03:43:35;;;;;;;9.45;5.13;;;;;;;19.09;65.22;100180.41;10262910;28;20057;-61
2023/09/11 03:48:37;;;;;;;11.40;5.90;;;;;;;19.09;65.21;100178.50;10264910;28;20050;-60
2023/09/11 03:53:42;;;;;;;18.17;4.82;;;;;;;19.08;65.13;100182.28;10258593;28;20043;-60
2023/09/11 03:58:45;;;;;;;13.40;5.23;;;;;;;19.05;65.32;100180.03;10263772;28;20141;-61
2023/09/11 04:03:46;;;;;;;14.35;5.18;;;;;;;19.05;65.22;100169.13;10262274;28;20504;-61
2023/09/11 04:08:49;;;;;;;13.05;5.00;;;;;;;18.98;65.49;100165.72;10262072;28;20126;-60
2023/09/11 04:13:50;;;;;;;15.77;6.32;;;;;;;18.96;65.40;100170.56;10258805;28;20141;-61
2023/09/11 04:18:52;;;;;;;11.45;5.82;;;;;;;18.89;65.73;100172.56;10291053;28;20381;-61
2023/09/11 04:23:53;;;;;;;11.38;4.90;;;;;;;18.71;65.98;100171.56;10302116;28;20055;-61
2023/09/11 04:28:55;;;;;;;14.32;5.82;;;;;;;18.67;66.20;100164.91;10300390;28;20050;-61
2023/09/11 04:33:56;;;;;;;10.63;5.53;;;;;;;18.69;66.27;100175.59;10302423;28;20060;-60
2023/09/11 04:38:58;;;;;;;10.77;5.78;;;;;;;18.68;66.20;100177.50;10309106;28;20037;-61
2023/09/11 04:43:59;;;;;;;10.13;5.38;;;;;;;18.71;66.29;100178.91;10303419;28;20050;-61
2023/09/11 04:49:01;;;;;;;15.05;5.40;;;;;;;18.70;66.11;100175.34;10298440;28;20052;-61
2023/09/11 04:54:02;;;;;;;12.18;6.57;;;;;;;18.72;66.15;100177.81;10300162;28;20042;-63
2023/09/11 04:59:04;;;;;;;15.88;6.38;;;;;;;18.73;66.22;100179.50;10295811;28;20504;-65
2023/09/11 05:04:06;;;;;;;15.30;7.70;;;;;;;18.71;66.33;100187.06;10298980;28;20051;-65
2023/09/11 05:09:07;;;;;;;20.48;8.40;;;;;;;18.73;66.62;100195.84;10297186;28;20046;-65
2023/09/11 05:14:13;;;;;;;12.48;6.20;;;;;;;18.72;66.71;100197.75;10302442;28;20057;-62
2023/09/11 05:19:14;;;;;;;9.82;6.07;;;;;;;18.77;66.72;100200.56;10296956;28;20499;-65
2023/09/11 05:24:15;;;;;;;16.90;6.32;;;;;;;18.88;66.69;100198.97;10301844;28;20038;-60
2023/09/11 05:29:17;;;;;;;16.75;7.10;;;;;;;18.93;66.62;100198.25;10308717;28;20062;-59
2023/09/11 05:34:18;;;;;;;14.63;6.28;;;;;;;18.97;66.66;100192.09;10309833;28;20042;-59
2023/09/11 05:39:20;;;;;;;21.08;7.13;;;;;;;19.06;66.63;100191.78;10302901;28;20058;-58
2023/09/11 05:44:21;;;;;;;16.35;7.63;;;;;;;19.14;66.77;100200.41;10306839;28;20086;-57
2023/09/11 05:49:23;;;;;;;15.75;7.07;;;;;;;19.24;66.45;100204.47;10310834;28;20042;-57
2023/09/11 05:54:25;;;;;;;15.93;7.90;;;;;;;19.32;66.82;100202.19;10309011;28;20153;-57
2023/09/11 05:59:26;;;;;;;16.38;7.72;;;;;;;19.41;66.73;100214.41;10303939;28;20399;-57
2023/09/11 06:04:30;;;;;;;12.25;7.18;;;;;;;19.50;66.83;100212.13;10304943;28;20130;-57
2023/09/11 06:09:32;;;;;;;16.60;6.25;;;;;;;19.59;66.52;100212.63;10303383;28;20057;-57
2023/09/11 06:14:37;;;;;;;13.25;6.43;;;;;;;19.72;66.64;100211.56;10308693;28;20047;-58
2023/09/11 06:19:39;;;;;;;21.10;8.38;;;;;;;19.84;66.66;100209.63;10304239;28;20058;-57
2023/09/11 06:24:40;;;;;;;14.48;6.50;;;;;;;19.92;66.98;100211.16;10302952;28;20491;-58
2023/09/11 06:29:42;;;;;;;15.73;7.13;;;;;;;20.07;67.00;100218.84;10301601;28;20050;-58
2023/09/11 06:34:43;;;;;;;16.98;6.80;;;;;;;20.11;67.09;100220.81;10304332;28;20129;-58
2023/09/11 06:39:45;;;;;;;14.25;7.65;;;;;;;20.16;67.57;100215.47;10306286;28;20511;-56
2023/09/11 06:44:47;;;;;;;14.13;6.55;;;;;;;20.35;67.58;100218.00;10304899;28;20146;-57
2023/09/11 06:49:48;;;;;;;16.23;6.60;;;;;;;20.47;67.17;100207.03;10303406;28;20051;-57
2023/09/11 06:54:50;;;;;;;22.52;7.70;;;;;;;20.67;67.36;100206.59;10305727;28;20129;-59
2023/09/11 06:59:52;;;;;;;15.63;5.75;;;;;;;20.85;67.11;100217.28;10309324;28;20061;-59
2023/09/11 07:04:54;;;;;;;15.10;5.72;;;;;;;21.02;67.10;100209.13;10303549;28;20050;-58
2023/09/11 07:09:55;;;;;;;18.30;6.40;;;;;;;21.20;66.58;100214.31;10302820;28;20057;-66
2023/09/11 07:14:57;;;;;;;11.15;5.68;;;;;;;21.33;66.60;100217.81;10296640;28;20050;-68
2023/09/11 07:19:58;;;;;;;13.50;6.10;;;;;;;21.52;65.97;100213.72;10299483;28;20050;-67
2023/09/11 07:24:59;;;;;;;20.50;5.47;;;;;;;21.69;66.14;100218.34;10305921;28;20054;-66
2023/09/11 07:30:03;;;;;;;16.05;5.97;;;;;;;21.80;66.23;100211.94;10305831;28;20050;-65
2023/09/11 07:35:05;;;;;;;15.63;6.20;;;;;;;22.04;65.68;100207.03;10305603;28;20582;-64
2023/09/11 07:40:07;;;;;;;14.52;5.43;;;;;;;22.19;65.44;100206.34;10297687;28;20047;-66
2023/09/11 07:45:09;;;;;;;12.13;5.05;;;;;;;22.38;65.28;100204.97;10304117;28;20050;-65
2023/09/11 07:50:10;;;;;;;19.90;6.65;;;;;;;22.57;64.99;100208.16;10299694;28;20046;-65
2023/09/11 07:55:12;;;;;;;17.13;6.10;;;;;;;22.79;64.63;100204.53;10298534;28;20050;-59
2023/09/11 08:00:14;;;;;;;17.75;5.65;;;;;;;23.03;64.41;100206.94;10301032;28;20053;-59
2023/09/11 08:05:15;;;;;;;16.23;5.22;;;;;;;23.22;63.86;100213.66;10299874;28;20050;-58
2023/09/11 08:10:17;;;;;;;14.85;5.10;;;;;;;23.39;63.73;100204.47;10297011;28;20041;-58
2023/09/11 08:15:18;;;;;;;9.63;4.90;;;;;;;23.59;63.44;100199.06;10301201;28;20046;-58
2023/09/11 08:20:20;;;;;;;11.27;4.60;;;;;;;23.79;63.05;100209.34;10306334;28;20141;-58
2023/09/11 08:25:21;;;;;;;16.40;5.22;;;;;;;23.87;62.54;100200.59;10304755;28;20142;-59
2023/09/11 08:30:23;;;;;;;13.68;4.45;;;;;;;24.10;62.25;100195.75;10304145;28;20042;-59
2023/09/11 08:35:24;;;;;;;16.95;4.60;;;;;;;24.27;61.76;100199.13;10301142;28;20054;-58
2023/09/11 08:40:30;;;;;;;16.52;6.32;;;;;;;24.46;60.97;100193.09;10297081;28;20054;-58
2023/09/11 08:45:32;;;;;;;12.48;4.78;;;;;;;24.62;60.73;100192.03;10300925;28;20054;-59
2023/09/11 08:50:35;;;;;;;7.25;4.63;;;;;;;24.80;60.04;100195.34;10301280;28;20121;-59
2023/09/11 08:55:38;;;;;;;10.15;4.88;;;;;;;25.04;59.76;100195.63;10298056;28;20050;-59
2023/09/11 09:00:40;;;;;;;14.95;4.28;;;;;;;25.09;59.09;100195.63;10299793;28;20380;-60
2023/09/11 09:05:42;;;;;;;11.27;4.25;;;;;;;25.09;59.06;100182.69;10298380;28;20042;-63
2023/09/11 09:10:43;;;;;;;10.50;4.60;;;;;;;25.39;58.18;100189.28;10283119;28;20051;-63
2023/09/11 09:15:45;;;;;;;17.77;4.13;;;;;;;25.57;57.39;100193.34;10294381;28;20368;-63
2023/09/11 09:20:46;;;;;;;13.45;3.80;;;;;;;25.89;56.62;100194.91;10305882;28;20401;-63
2023/09/11 09:25:48;;;;;;;12.35;3.60;;;;;;;26.03;55.83;100181.38;10303720;28;20047;-64
2023/09/11 09:30:55;;;;;;;10.52;3.92;;;;;;;26.26;55.37;100177.09;10295763;28;20039;-64
2023/09/11 09:35:57;;;;;;;11.35;4.85;;;;;;;26.53;54.59;100171.13;10280559;28;20043;-63
2023/09/11 09:41:08;;;;;;;9.25;4.03;;;;;;;26.84;53.92;100159.91;10301157;28;21119;-65
2023/09/11 09:46:20;;;;;;;8.32;3.28;;;;;;;27.15;53.21;100154.06;10294992;28;20652;-64
2023/09/11 09:51:21;;;;;;;6.97;3.40;;;;;;;27.28;52.82;100151.47;10299118;28;20120;-64
2023/09/11 09:56:23;;;;;;;7.75;3.10;;;;;;;27.53;51.68;100144.03;10294565;28;20059;-65
2023/09/11 10:01:24;;;;;;;11.45;3.60;;;;;;;27.77;50.74;100145.94;10300448;28;20137;-64
2023/09/11 10:06:27;;;;;;;11.52;3.15;;;;;;;28.03;50.02;100138.16;10299021;28;20046;-65
2023/09/11 10:11:32;;;;;;;10.63;3.75;;;;;;;28.25;49.25;100135.59;10297631;28;20492;-66
2023/09/11 10:16:33;;;;;;;9.60;2.95;;;;;;;28.56;48.85;100129.63;10289478;28;20400;-65
2023/09/11 10:21:35;;;;;;;11.25;4.03;;;;;;;28.88;48.26;100127.97;10299675;28;20074;-64
2023/09/11 10:26:52;;;;;;;7.07;3.10;;;;;;;29.25;46.43;100120.69;10304586;28;20039;-67
2023/09/11 10:32:01;;;;;;;8.43;3.95;;;;;;;29.65;45.67;100115.44;10301473;28;20061;-66
2023/09/11 10:37:05;;;;;;;6.47;3.42;;;;;;;30.27;43.79;100116.84;10294419;28;20046;-65
2023/09/11 10:42:06;;;;;;;13.18;3.50;;;;;;;30.50;42.63;100118.53;10301177;28;20039;-63
2023/09/11 10:47:11;;;;;;;10.43;3.92;;;;;;;30.72;41.30;100108.56;10302727;28;20043;-62
2023/09/11 10:52:12;;;;;;;9.23;3.67;;;;;;;31.38;41.09;100095.66;10295097;28;20148;-63
2023/09/11 10:57:14;;;;;;;12.77;3.40;;;;;;;31.94;39.29;100103.47;10299870;28;20043;-63
2023/09/11 11:02:21;;;;;;;10.00;2.85;;;;;;;31.99;38.22;100092.19;10299560;28;20053;-62
2023/09/11 11:07:23;;;;;;;8.05;3.38;;;;;;;32.26;38.20;100085.50;10303671;28;20057;-64
2023/09/11 11:12:32;;;;;;;8.52;3.10;;;;;;;32.48;38.25;100072.53;10301856;28;20042;-64
2023/09/11 11:17:37;;;;;;;12.43;4.07;;;;;;;32.74;38.04;100076.13;10302819;28;20522;-63
2023/09/11 11:22:41;;;;;;;10.68;3.42;;;;;;;32.80;37.98;100065.59;10292365;28;20350;-63
2023/09/11 11:27:44;;;;;;;12.02;3.67;;;;;;;33.00;36.68;100055.72;10298432;28;20046;-62
2023/09/11 11:32:48;;;;;;;14.93;2.90;;;;;;;32.84;36.63;100054.63;10303071;28;20049;-62
2023/09/11 11:37:52;;;;;;;7.60;3.30;;;;;;;33.03;36.56;100055.03;10298560;28;20050;-63
2023/09/11 11:42:55;;;;;;;12.80;3.80;;;;;;;32.91;36.16;100057.72;10302856;28;20058;-62
2023/09/11 11:47:56;;;;;;;9.85;3.85;;;;;;;33.00;36.36;100056.53;10300519;28;20082;-62
2023/09/11 11:52:58;;;;;;;8.63;3.08;;;;;;;32.75;36.59;100052.69;10300446;28;20150;-60
2023/09/11 11:57:59;;;;;;;13.55;3.55;;;;;;;32.62;35.91;100053.69;10293388;28;20061;-60
2023/09/11 12:03:05;;;;;;;10.27;3.20;;;;;;;32.48;36.06;100056.66;10295557;28;20038;-60
2023/09/11 12:08:11;;;;;;;10.70;3.45;;;;;;;32.45;35.76;100051.78;10295550;28;20781;-62
2023/09/11 12:13:13;;;;;;;5.32;2.67;;;;;;;32.63;35.96;100044.22;10296687;28;20408;-63
2023/09/11 12:18:14;;;;;;;15.75;3.28;;;;;;;32.87;34.81;100053.97;10297052;28;20043;-62
2023/09/11 12:23:16;;;;;;;14.55;4.10;;;;;;;32.96;35.13;100052.78;10296714;28;20051;-60
2023/09/11 12:28:20;;;;;;;11.13;3.00;;;;;;;33.44;33.51;100038.78;10299527;28;20050;-60
2023/09/11 12:33:27;;;;;;;16.30;4.32;;;;;;;33.58;33.65;100036.56;10297760;28;20045;-62
2023/09/11 12:38:29;;;;;;;14.38;3.78;;;;;;;33.55;33.78;100038.06;10301965;28;20066;-60
2023/09/11 12:43:31;;;;;;;14.63;2.67;;;;;;;33.50;34.05;100041.03;10299899;28;20129;-60
2023/09/11 12:48:44;;;;;;;10.25;2.33;;;;;;;33.31;33.72;100038.69;10294412;28;20061;-61
2023/09/11 12:53:47;;;;;;;13.40;2.13;;;;;;;33.40;33.93;100033.06;10299278;28;20581;-65
2023/09/11 12:58:49;;;;;;;17.88;3.47;;;;;;;33.68;33.33;100025.03;10299319;28;20133;-64
2023/09/11 13:03:50;;;;;;;8.07;3.17;;;;;;;33.63;33.50;100022.47;10293147;28;20050;-60
2023/09/11 13:08:54;;;;;;;5.88;2.20;;;;;;;33.59;33.12;100008.34;10296263;28;20411;-60
2023/09/11 13:13:55;;;;;;;14.02;2.55;;;;;;;33.47;33.07;100005.47;10294637;28;20553;-60
2023/09/11 13:19:17;;;;;;;7.78;2.15;;;;;;;33.58;33.65;100008.69;10298580;28;20101;-60
2023/09/11 13:24:18;;;;;;;19.95;2.55;;;;;;;33.70;32.75;99997.63;10295130;28;20039;-60
2023/09/11 13:29:20;;;;;;;10.82;2.67;;;;;;;33.44;32.81;99997.00;10301769;28;20078;-60
2023/09/11 13:34:21;;;;;;;11.38;2.13;;;;;;;33.53;32.98;99987.41;10303166;28;20061;-60
2023/09/11 13:39:23;;;;;;;14.30;2.38;;;;;;;33.89;32.56;99983.19;10299939;28;20058;-60
2023/09/11 13:44:24;;;;;;;13.07;4.10;;;;;;;33.91;32.16;99971.69;10296471;28;20039;-60
2023/09/11 13:49:26;;;;;;;14.25;2.40;;;;;;;33.98;31.88;99966.38;10304949;28;20517;-60
2023/09/11 13:54:27;;;;;;;8.35;2.55;;;;;;;34.02;30.78;99964.50;10308178;28;20051;-60
2023/09/11 13:59:29;;;;;;;13.25;2.55;;;;;;;34.13;30.46;99956.53;10302401;28;20584;-60
2023/09/11 14:04:30;;;;;;;13.98;2.72;;;;;;;34.53;30.71;99955.94;10304890;28;20396;-60
2023/09/11 14:09:32;;;;;;;7.40;1.92;;;;;;;35.04;29.70;99941.66;10289942;28;20489;-60
2023/09/11 14:14:35;;;;;;;18.10;2.28;;;;;;;35.18;29.35;99953.28;10306738;28;20051;-60
2023/09/11 14:19:37;;;;;;;11.68;2.35;;;;;;;35.63;29.02;99949.44;10307294;28;20495;-61
2023/09/11 14:24:41;;;;;;;10.73;2.10;;;;;;;35.95;28.83;99941.16;10307107;28;20043;-64
2023/09/11 14:29:43;;;;;;;11.05;1.80;;;;;;;37.90;26.33;99939.00;10318224;28;20042;-64
2023/09/11 14:34:44;;;;;;;12.85;2.33;;;;;;;39.02;24.89;99936.13;10299247;28;20815;-62
2023/09/11 14:39:46;;;;;;;9.82;1.92;;;;;;;39.51;24.45;99932.41;10309255;28;20046;-62
2023/09/11 14:44:48;;;;;;;11.32;3.35;;;;;;;39.82;24.01;99938.81;10313467;28;20050;-63
2023/09/11 14:49:49;;;;;;;14.65;2.20;;;;;;;39.22;23.94;99939.63;10293154;28;20741;-65
2023/09/11 14:54:51;;;;;;;11.48;1.98;;;;;;;39.25;23.79;99942.50;10303019;28;20135;-65
2023/09/11 14:59:55;;;;;;;8.98;2.40;;;;;;;39.11;23.63;99933.88;10298368;28;20074;-64
2023/09/11 15:04:57;;;;;;;10.25;2.10;;;;;;;38.64;24.25;99929.50;10288957;28;20074;-64
2023/09/11 15:09:58;;;;;;;8.38;2.90;;;;;;;37.67;24.83;99922.91;10311083;28;20415;-64
2023/09/11 15:15:00;;;;;;;18.67;1.98;;;;;;;37.25;25.39;99926.44;10298372;28;20403;-65
2023/09/11 15:20:02;;;;;;;10.77;2.60;;;;;;;36.90;25.69;99904.81;10302185;28;20046;-64
2023/09/11 15:25:04;;;;;;;7.68;1.77;;;;;;;36.93;25.96;99903.28;10304556;28;20082;-64
2023/09/11 15:30:06;;;;;;;10.52;2.35;;;;;;;36.72;26.42;99903.59;10308821;28;20051;-65
2023/09/11 15:35:08;;;;;;;15.73;2.45;;;;;;;36.60;26.54;99907.28;10304258;28;20034;-64
2023/09/11 15:40:10;;;;;;;8.88;2.55;;;;;;;36.29;26.58;99905.31;10301805;28;20491;-65
2023/09/11 15:45:11;;;;;;;11.57;2.15;;;;;;;36.05;26.98;99904.25;10306199;28;20058;-64
2023/09/11 15:50:13;;;;;;;13.32;2.08;;;;;;;36.21;27.02;99897.91;10314290;28;20112;-64
2023/09/11 15:55:14;;;;;;;10.55;2.08;;;;;;;35.98;26.95;99901.25;10311290;28;20048;-65
2023/09/11 16:00:16;;;;;;;8.63;2.17;;;;;;;36.21;26.56;99900.69;10307698;28;20038;-65
2023/09/11 16:05:18;;;;;;;8.82;2.05;;;;;;;36.14;27.30;99899.31;10307121;28;20043;-60
2023/09/11 16:10:19;;;;;;;12.73;2.45;;;;;;;36.14;28.00;99896.50;10296924;28;20046;-60
2023/09/11 16:15:21;;;;;;;11.93;2.45;;;;;;;36.14;28.21;99898.50;10298002;28;20076;-59
2023/09/11 16:20:26;;;;;;;12.63;2.10;;;;;;;36.02;27.59;99905.00;10304399;28;20047;-60
2023/09/11 16:25:28;;;;;;;;;;;;;;;35.97;28.02;99891.25;10305785;28;20469;-59
2023/09/11 16:30:29;;;;;;;8.10;2.15;;;;;;;36.02;27.72;99902.19;10298780;28;20514;-62
2023/09/11 16:35:32;;;;;;;10.07;2.30;;;;;;;35.79;27.48;99898.38;10302474;28;20051;-61
2023/09/11 16:40:34;;;;;;;14.15;2.88;;;;;;;35.74;27.76;99908.66;10288561;28;20065;-60
2023/09/11 16:45:36;;;;;;;12.80;2.95;;;;;;;35.84;28.07;99903.69;10298280;28;20069;-60
2023/09/11 16:50:38;;;;;;;13.73;2.65;;;;;;;35.72;28.04;99905.41;10302028;28;20049;-60
2023/09/11 16:55:40;;;;;;;11.30;2.53;;;;;;;35.41;28.69;99902.44;10297651;28;20114;-60
2023/09/11 17:00:41;;;;;;;7.82;2.35;;;;;;;34.95;29.70;99897.91;10297594;28;20042;-60
2023/09/11 17:05:43;;;;;;;14.77;2.95;;;;;;;34.50;30.57;99893.25;10298227;28;20042;-62
2023/09/11 17:10:44;;;;;;;17.95;3.28;;;;;;;34.01;31.04;99893.16;10298677;28;20059;-61
2023/09/11 17:15:46;;;;;;;14.73;3.55;;;;;;;33.57;32.24;99904.72;10293111;28;20054;-60
2023/09/11 17:20:50;;;;;;;15.32;3.75;;;;;;;33.08;33.43;99898.88;10300698;28;20129;-59
2023/09/11 17:25:52;;;;;;;14.23;3.22;;;;;;;32.65;33.69;99893.59;10309619;28;20055;-59
2023/09/11 17:30:53;;;;;;;22.65;3.85;;;;;;;32.25;34.94;99893.88;10309676;28;20410;-60
2023/09/11 17:35:55;;;;;;;18.83;5.03;;;;;;;31.87;35.97;99884.31;10306964;28;20046;-59
2023/09/11 17:40:57;;;;;;;17.88;7.70;;;;;;;31.48;36.71;99886.19;10308493;28;20124;-60
2023/09/11 17:46:00;;;;;;;18.35;5.97;;;;;;;31.12;37.06;99887.28;10307523;28;20057;-61
2023/09/11 17:51:01;;;;;;;14.90;4.70;;;;;;;30.83;37.92;99891.47;10306218;28;20158;-60
2023/09/11 17:56:03;;;;;;;18.33;4.38;;;;;;;30.54;38.62;99883.72;10299575;28;20050;-60
2023/09/11 18:01:04;;;;;;;14.60;4.88;;;;;;;30.24;39.66;99891.72;10312286;28;20051;-60
2023/09/11 18:06:06;;;;;;;17.75;5.03;;;;;;;29.97;39.87;99894.69;10300262;28;20670;-59
2023/09/11 18:11:07;;;;;;;13.02;4.28;;;;;;;29.65;41.15;99897.38;10300329;28;20496;-59
2023/09/11 18:16:09;;;;;;;12.23;4.15;;;;;;;29.31;42.19;99910.97;10307651;28;20078;-59
2023/09/11 18:21:10;;;;;;;20.02;5.22;;;;;;;29.11;42.01;99915.81;10307999;28;20101;-58
2023/09/11 18:26:12;;;;;;;12.02;4.57;;;;;;;28.87;42.72;99916.03;10305255;28;20060;-59
2023/09/11 18:31:13;;;;;;;15.60;4.93;;;;;;;28.52;43.57;99923.94;10306079;28;20042;-61
2023/09/11 18:36:15;;;;;;;25.30;4.30;;;;;;;28.21;44.05;99918.13;10304469;28;20059;-59
2023/09/11 18:41:16;;;;;;;13.60;3.55;;;;;;;27.94;45.29;99939.03;10302664;28;20766;-58
2023/09/11 18:46:18;;;;;;;12.15;3.58;;;;;;;27.83;45.23;99943.91;10302484;28;20398;-60
2023/09/11 18:51:19;;;;;;;7.40;3.35;;;;;;;27.56;45.87;99950.13;10292478;28;20050;-59
2023/09/11 18:56:21;;;;;;;17.70;3.85;;;;;;;27.49;46.54;99952.47;10292763;28;20093;-59
2023/09/11 19:01:23;;;;;;;12.40;5.32;;;;;;;27.41;46.72;99945.66;10307591;28;20050;-59
2023/09/11 19:06:24;;;;;;;13.15;5.10;;;;;;;27.27;47.40;99947.50;10308978;28;20054;-59
2023/09/11 19:11:26;;;;;;;18.17;4.50;;;;;;;27.01;48.09;99949.75;10305061;28;20050;-59
2023/09/11 19:16:27;;;;;;;11.07;4.43;;;;;;;26.90;48.68;99949.09;10301051;28;20050;-59
2023/09/11 19:21:29;;;;;;;18.48;4.13;;;;;;;26.81;48.68;99950.84;10296369;28;20053;-58
2023/09/11 19:26:31;;;;;;;7.35;4.78;;;;;;;26.70;49.29;99936.38;10298096;28;20046;-59
2023/09/11 19:31:32;;;;;;;15.40;5.35;;;;;;;26.58;49.89;99945.06;10302916;28;20057;-60
2023/09/11 19:36:34;;;;;;;12.82;4.18;;;;;;;26.38;50.21;99934.19;10303812;28;20141;-59
2023/09/11 19:41:35;;;;;;;13.98;4.22;;;;;;;26.07;50.86;99946.34;10297234;28;20142;-59
2023/09/11 19:46:37;;;;;;;17.30;5.45;;;;;;;26.04;51.22;99933.13;10296835;28;20043;-59
2023/09/11 19:51:38;;;;;;;11.90;4.60;;;;;;;25.95;51.31;99934.03;10302594;28;20051;-59
2023/09/11 19:56:40;;;;;;;18.00;6.30;;;;;;;25.78;51.89;99937.19;10307737;28;20650;-59
2023/09/11 20:01:42;;;;;;;20.38;6.05;;;;;;;25.72;51.87;99936.41;10303197;28;20050;-59
2023/09/11 20:06:43;;;;;;;15.35;7.13;;;;;;;25.65;52.12;99933.16;10303374;28;20074;-59
2023/09/11 20:11:45;;;;;;;13.93;5.63;;;;;;;25.50;52.16;99932.16;10302225;28;20068;-59
2023/09/11 20:16:46;;;;;;;16.00;5.05;;;;;;;25.33;52.84;99920.72;10302449;28;20050;-59
2023/09/11 20:21:48;;;;;;;14.57;5.28;;;;;;;25.15;52.97;99922.16;10302991;28;20042;-58
2023/09/11 20:26:50;;;;;;;11.57;4.80;;;;;;;25.02;53.99;99917.28;10307261;28;20043;-59
2023/09/11 20:31:51;;;;;;;12.95;5.70;;;;;;;24.80;54.22;99909.41;10302866;28;20074;-59
2023/09/11 20:36:52;;;;;;;14.50;5.38;;;;;;;24.71;54.75;99909.19;10301103;28;20529;-62
2023/09/11 20:41:54;;;;;;;11.40;5.63;;;;;;;24.68;54.26;99904.22;10301997;28;20046;-60
2023/09/11 20:46:55;;;;;;;14.25;5.50;;;;;;;24.64;54.61;99908.66;10300205;28;20058;-59
2023/09/11 20:51:57;;;;;;;16.52;7.13;;;;;;;24.54;55.15;99909.50;10302601;28;20046;-60
2023/09/11 20:56:58;;;;;;;17.33;6.28;;;;;;;24.38;55.16;99907.88;10299287;28;20070;-59
2023/09/11 21:02:00;;;;;;;15.40;5.95;;;;;;;24.28;55.38;99897.75;10301182;28;20054;-60
2023/09/11 21:07:01;;;;;;;13.65;5.60;;;;;;;24.18;55.60;99906.81;10300290;28;20050;-57
2023/09/11 21:12:03;;;;;;;15.38;5.28;;;;;;;24.08;55.79;99906.84;10298782;28;20074;-59
2023/09/11 21:17:05;;;;;;;12.45;4.97;;;;;;;23.98;55.96;99902.19;10298396;28;20081;-57
2023/09/11 21:22:06;;;;;;;16.08;5.95;;;;;;;23.88;56.16;99908.50;10297626;28;20114;-57
2023/09/11 21:27:08;;;;;;;10.80;4.32;;;;;;;23.83;56.28;99903.00;10302330;28;20052;-58
2023/09/11 21:32:09;;;;;;;10.60;5.40;;;;;;;23.76;56.51;99897.78;10298671;28;20051;-58
2023/09/11 21:37:11;;;;;;;13.75;4.22;;;;;;;23.65;56.75;99898.84;10295708;28;20042;-58
2023/09/11 21:42:12;;;;;;;12.82;4.68;;;;;;;23.60;56.73;99893.38;10295990;28;20053;-57
2023/09/11 21:47:14;;;;;;;10.10;4.88;;;;;;;23.53;57.06;99901.88;10299151;28;20058;-59
2023/09/11 21:52:15;;;;;;;15.15;4.68;;;;;;;23.50;56.92;99901.59;10303479;28;20051;-58
2023/09/11 21:57:17;;;;;;;12.27;4.65;;;;;;;23.23;57.77;99910.88;10295904;28;20221;-57
2023/09/11 22:02:19;;;;;;;13.07;5.10;;;;;;;23.21;57.60;99907.59;10303334;28;20046;-57
2023/09/11 22:07:21;;;;;;;10.10;5.43;;;;;;;23.13;57.75;99906.19;10292382;28;20407;-58
2023/09/11 22:12:22;;;;;;;12.23;5.00;;;;;;;23.06;57.78;99902.88;10301907;28;20043;-57
2023/09/11 22:17:24;;;;;;;16.25;5.25;;;;;;;22.86;58.57;99908.28;10308742;28;20436;-57
2023/09/11 22:22:25;;;;;;;13.55;4.72;;;;;;;22.81;58.54;99909.09;10302362;28;20043;-58
2023/09/11 22:27:26;;;;;;;11.98;4.97;;;;;;;22.81;58.50;99909.09;10286027;28;20047;-59
2023/09/11 22:32:28;;;;;;;10.32;4.85;;;;;;;22.77;58.72;99911.53;10304150;28;20042;-57
2023/09/11 22:37:45;;;;;;;;;;;;;;;22.55;58.41;99908.97;10301926;28;20047;-57
2023/09/11 22:42:46;;;;;;;15.40;4.15;;;;;;;22.51;58.76;99896.91;10302885;28;19929;-57
2023/09/11 22:47:50;;;;;;;9.65;5.00;;;;;;;22.51;58.74;99888.69;10307163;28;20105;-57
2023/09/11 22:52:52;;;;;;;12.52;4.32;;;;;;;22.35;59.33;99896.00;10304231;28;20046;-58
2023/09/11 22:57:53;;;;;;;7.85;4.57;;;;;;;22.28;59.40;99892.66;10298890;28;20058;-58
2023/09/11 23:03:02;;;;;;;10.90;4.55;;;;;;;22.29;59.66;99894.28;10304299;28;20042;-57